createdAt,value
2022-09-18T00:01:24.915Z,62.65
2022-09-18T00:03:54.944Z,62.41
2022-09-18T00:06:24.223Z,62.27
2022-09-18T00:08:52.540Z,63.56
2022-09-18T00:11:22.285Z,63.54
2022-09-18T00:13:50.093Z,63.17
2022-09-18T00:16:18.386Z,62.49
2022-09-18T00:18:48.140Z,65.83
2022-09-18T00:21:17.993Z,61.23
2022-09-18T00:23:45.244Z,60.12
2022-09-18T00:26:14.056Z,60.69
2022-09-18T00:28:40.811Z,60.56
2022-09-18T00:31:13.259Z,62.54
2022-09-18T00:33:40.302Z,60.62
2022-09-18T00:36:09.599Z,61.10
2022-09-18T00:38:36.442Z,60.76
2022-09-18T00:41:05.780Z,59.91
2022-09-18T00:43:34.543Z,59.69
2022-09-18T00:46:30.678Z,60.13
2022-09-18T00:49:29.556Z,60.11
2022-09-18T00:51:58.595Z,61.26
2022-09-18T00:54:39.372Z,61.87
2022-09-18T00:57:12.788Z,61.17
2022-09-18T00:59:43.134Z,61.11
2022-09-18T01:02:09.773Z,61.66
2022-09-18T01:04:36.369Z,61.05
2022-09-18T01:07:29.315Z,61.32
2022-09-18T01:10:14.697Z,61.05
2022-09-18T01:13:02.380Z,60.56
2022-09-18T01:15:57.279Z,59.87
2022-09-18T01:18:29.907Z,59.40
2022-09-18T01:21:14.664Z,58.05
2022-09-18T01:24:09.139Z,58.75
2022-09-18T01:26:55.224Z,58.00
2022-09-18T01:29:24.874Z,58.19
2022-09-18T01:32:01.338Z,58.61
2022-09-18T01:34:39.153Z,58.80
2022-09-18T01:37:17.637Z,58.98
2022-09-18T01:39:53.331Z,59.13
2022-09-18T01:42:24.037Z,61.15
2022-09-18T01:44:55.435Z,59.64
2022-09-18T01:47:26.442Z,59.73
2022-09-18T01:49:55.530Z,60.16
2022-09-18T01:52:33.368Z,60.19
2022-09-18T01:55:02.325Z,59.81
2022-09-18T01:57:39.296Z,59.74
2022-09-18T02:00:11.860Z,59.53
2022-09-18T02:02:46.333Z,59.47
2022-09-18T02:05:19.237Z,58.39
2022-09-18T02:07:54.566Z,58.24
2022-09-18T02:10:24.241Z,58.84
2022-09-18T02:12:53.670Z,58.15
2022-09-18T02:15:23.655Z,59.25
2022-09-18T02:17:58.387Z,58.99
2022-09-18T02:20:29.543Z,59.46
2022-09-18T02:22:59.956Z,61.04
2022-09-18T02:25:43.378Z,61.26
2022-09-18T02:28:13.502Z,61.70
2022-09-18T02:30:40.902Z,59.74
2022-09-18T02:33:27.176Z,58.41
2022-09-18T02:36:01.900Z,58.72
2022-09-18T02:38:56.569Z,59.09
2022-09-18T02:41:38.072Z,64.04
2022-09-18T02:44:28.080Z,60.56
2022-09-18T02:47:29.304Z,60.41
2022-09-18T02:50:15.340Z,61.58
2022-09-18T02:53:31.375Z,61.54
2022-09-18T02:56:09.119Z,61.65
2022-09-18T02:58:51.463Z,62.05
2022-09-18T03:01:21.930Z,62.78
2022-09-18T03:03:48.692Z,62.75
2022-09-18T03:06:15.314Z,62.41
2022-09-18T03:08:41.827Z,62.23
2022-09-18T03:11:09.109Z,62.68
2022-09-18T03:13:35.941Z,62.13
2022-09-18T03:16:03.074Z,60.90
2022-09-18T03:18:29.702Z,60.83
2022-09-18T03:20:56.335Z,60.60
2022-09-18T03:23:24.385Z,60.68
2022-09-18T03:25:51.118Z,60.53
2022-09-18T03:28:18.102Z,59.46
2022-09-18T03:30:45.851Z,59.02
2022-09-18T03:33:12.495Z,59.32
2022-09-18T03:35:39.144Z,59.38
2022-09-18T03:38:05.774Z,58.80
2022-09-18T03:40:32.367Z,58.52
2022-09-18T03:42:58.971Z,56.80
2022-09-18T03:45:25.481Z,56.42
2022-09-18T03:47:52.134Z,56.52
2022-09-18T03:50:18.770Z,56.38
2022-09-18T03:52:50.412Z,56.71
2022-09-18T03:55:17.668Z,55.71
2022-09-18T03:57:46.453Z,56.18
2022-09-18T04:00:14.381Z,57.23
2022-09-18T04:02:41.933Z,58.82
2022-09-18T04:05:09.190Z,56.05
2022-09-18T04:07:36.035Z,54.44
2022-09-18T04:10:03.328Z,54.35
2022-09-18T04:12:30.020Z,54.41
2022-09-18T04:14:56.611Z,54.30
2022-09-18T04:17:23.377Z,54.51
2022-09-18T04:19:53.419Z,54.97
2022-09-18T04:22:21.032Z,57.40
2022-09-18T04:24:50.402Z,54.69
2022-09-18T04:27:17.717Z,55.23
2022-09-18T04:29:44.425Z,53.69
2022-09-18T04:32:11.047Z,53.47
2022-09-18T04:34:37.627Z,55.38
2022-09-18T04:37:09.412Z,50.67
2022-09-18T04:39:36.852Z,51.75
2022-09-18T04:42:03.925Z,52.87
2022-09-18T04:44:30.566Z,53.84
2022-09-18T04:46:57.915Z,54.17
2022-09-18T04:49:24.556Z,53.53
2022-09-18T04:51:51.181Z,54.25
2022-09-18T04:54:17.828Z,56.36
2022-09-18T04:56:44.465Z,56.67
2022-09-18T04:59:11.160Z,56.51
2022-09-18T05:01:37.799Z,56.47
2022-09-18T05:04:04.459Z,51.14
2022-09-18T05:06:31.023Z,50.80
2022-09-18T05:08:58.360Z,52.17
2022-09-18T05:11:26.265Z,53.11
2022-09-18T05:13:56.699Z,53.03
2022-09-18T05:16:24.474Z,53.40
2022-09-18T05:18:52.055Z,54.43
2022-09-18T05:21:19.384Z,56.46
2022-09-18T05:23:48.013Z,53.41
2022-09-18T05:26:14.736Z,53.08
2022-09-18T05:28:41.483Z,54.12
2022-09-18T05:31:08.815Z,53.01
2022-09-18T05:33:36.670Z,53.54
2022-09-18T05:36:05.692Z,52.96
2022-09-18T05:38:32.521Z,57.50
2022-09-18T05:41:01.719Z,53.73
2022-09-18T05:43:29.197Z,53.73
2022-09-18T05:45:56.220Z,53.09
2022-09-18T05:48:23.195Z,51.75
2022-09-18T05:50:52.378Z,52.17
2022-09-18T05:53:21.450Z,52.84
2022-09-18T05:55:48.499Z,54.55
2022-09-18T05:58:17.843Z,54.24
2022-09-18T06:00:45.660Z,54.70
2022-09-18T06:03:14.655Z,55.25
2022-09-18T06:05:41.969Z,54.15
2022-09-18T06:08:11.018Z,51.98
2022-09-18T06:10:39.654Z,51.93
2022-09-18T06:13:13.111Z,53.65
2022-09-18T06:15:40.060Z,53.83
2022-09-18T06:18:08.940Z,54.15
2022-09-18T06:20:35.919Z,55.98
2022-09-18T06:23:03.224Z,56.01
2022-09-18T06:25:30.741Z,55.74
2022-09-18T06:28:01.005Z,56.82
2022-09-18T06:30:29.540Z,57.39
2022-09-18T06:33:00.985Z,57.33
2022-09-18T06:35:27.855Z,57.65
2022-09-18T06:37:55.624Z,58.97
2022-09-18T06:40:22.904Z,58.55
2022-09-18T06:42:55.309Z,57.21
2022-09-18T06:45:21.787Z,58.91
2022-09-18T06:47:48.349Z,58.02
2022-09-18T06:50:14.940Z,58.52
2022-09-18T06:52:41.509Z,57.79
2022-09-18T06:55:09.482Z,56.85
2022-09-18T06:57:36.098Z,57.08
2022-09-18T07:00:04.568Z,57.26
2022-09-18T07:02:32.512Z,57.29
2022-09-18T07:04:59.109Z,57.22
2022-09-18T07:07:25.731Z,57.75
2022-09-18T07:09:52.627Z,57.90
2022-09-18T07:12:19.232Z,57.68
2022-09-18T07:14:46.292Z,56.34
2022-09-18T07:17:17.827Z,55.85
2022-09-18T07:19:45.776Z,54.00
2022-09-18T07:22:12.504Z,54.08
2022-09-18T07:24:39.089Z,55.92
2022-09-18T07:27:06.445Z,55.12
2022-09-18T07:29:33.025Z,52.33
2022-09-18T07:32:00.216Z,51.42
2022-09-18T07:34:26.929Z,47.40
2022-09-18T07:36:53.515Z,48.06
2022-09-18T07:39:20.281Z,47.45
2022-09-18T07:41:46.844Z,49.02
2022-09-18T07:44:13.477Z,49.43
2022-09-18T07:46:40.115Z,48.45
2022-09-18T07:49:06.770Z,50.36
2022-09-18T07:51:33.415Z,51.03
2022-09-18T07:54:00.196Z,45.97
2022-09-18T07:56:26.912Z,42.71
2022-09-18T07:58:53.549Z,48.22
2022-09-18T08:01:20.263Z,39.07
2022-09-18T08:03:46.998Z,44.89
2022-09-18T08:06:13.943Z,41.44
2022-09-18T08:08:40.584Z,37.74
2022-09-18T08:11:07.219Z,42.95
2022-09-18T08:13:33.882Z,40.34
2022-09-18T08:16:02.650Z,36.91
2022-09-18T08:18:29.413Z,38.09
2022-09-18T08:20:57.256Z,45.28
2022-09-18T08:23:23.896Z,42.99
2022-09-18T08:25:50.427Z,33.37
2022-09-18T08:28:17.099Z,37.12
2022-09-18T08:30:44.182Z,36.45
2022-09-18T08:33:10.961Z,37.08
2022-09-18T08:35:37.807Z,40.58
2022-09-18T08:38:04.547Z,37.76
2022-09-18T08:40:54.903Z,33.60
2022-09-18T08:43:27.677Z,31.38
2022-09-18T08:46:01.295Z,33.63
2022-09-18T08:48:31.429Z,33.98
2022-09-18T08:51:04.855Z,37.46
2022-09-18T08:53:43.251Z,34.45
2022-09-18T08:56:18.269Z,35.14
2022-09-18T08:59:04.212Z,39.39
2022-09-18T09:01:42.796Z,39.88
2022-09-18T09:04:27.890Z,32.06
2022-09-18T09:07:26.166Z,38.64
2022-09-18T09:10:23.488Z,31.97
2022-09-18T09:13:27.401Z,34.95
2022-09-18T09:16:03.930Z,29.66
2022-09-18T09:19:09.513Z,28.99
2022-09-18T09:22:14.000Z,30.21
2022-09-18T09:25:28.553Z,29.34
2022-09-18T09:28:42.871Z,32.70
2022-09-18T09:31:10.822Z,35.63
2022-09-18T09:33:48.142Z,31.23
2022-09-18T09:36:17.368Z,31.66
2022-09-18T09:39:08.796Z,33.68
2022-09-18T09:41:45.195Z,35.27
2022-09-18T09:44:30.276Z,33.05
2022-09-18T09:47:09.165Z,32.10
2022-09-18T09:50:02.360Z,28.69
2022-09-18T09:52:29.513Z,31.01
2022-09-18T09:55:01.208Z,36.43
2022-09-18T09:57:42.031Z,34.48
2022-09-18T10:00:19.987Z,33.51
2022-09-18T10:03:05.368Z,30.67
2022-09-18T10:05:53.659Z,33.44
2022-09-18T10:10:57.719Z,31.71
2022-09-18T10:13:33.298Z,32.43
2022-09-18T10:16:18.286Z,29.36
2022-09-18T10:18:46.910Z,33.76
2022-09-18T10:21:22.495Z,28.90
2022-09-18T10:24:05.922Z,30.17
2022-09-18T10:26:41.228Z,30.68
2022-09-18T10:29:10.093Z,33.61
2022-09-18T10:31:57.032Z,32.03
2022-09-18T10:34:42.510Z,32.02
2022-09-18T10:37:36.548Z,30.98
2022-09-18T10:40:05.639Z,28.30
2022-09-18T10:42:34.071Z,32.44
2022-09-18T10:45:07.127Z,30.23
2022-09-18T10:47:36.012Z,28.92
2022-09-18T10:50:06.418Z,28.09
2022-09-18T10:52:46.680Z,29.38
2022-09-18T10:55:28.483Z,31.75
2022-09-18T10:57:55.116Z,32.38
2022-09-18T11:00:21.780Z,28.89
2022-09-18T11:02:53.441Z,31.11
2022-09-18T11:05:22.884Z,31.82
2022-09-18T11:07:56.050Z,31.25
2022-09-18T11:10:25.428Z,28.46
2022-09-18T11:12:58.827Z,30.00
2022-09-18T11:15:30.385Z,27.35
2022-09-18T11:18:03.705Z,26.46
2022-09-18T11:20:41.699Z,28.09
2022-09-18T11:23:34.148Z,29.65
2022-09-18T11:26:16.718Z,30.47
2022-09-18T11:28:43.551Z,28.59
2022-09-18T11:31:19.616Z,30.03
2022-09-18T11:33:48.598Z,26.70
2022-09-18T11:36:22.502Z,25.30
2022-09-18T11:38:49.362Z,27.59
2022-09-18T11:41:35.183Z,26.00
2022-09-18T11:44:14.766Z,27.96
2022-09-18T11:47:04.394Z,28.01
2022-09-18T11:49:42.199Z,26.83
2022-09-18T11:52:33.910Z,27.09
2022-09-18T11:55:04.642Z,28.45
2022-09-18T11:57:56.761Z,27.84
2022-09-18T12:00:26.880Z,25.65
2022-09-18T12:03:24.587Z,24.13
2022-09-18T12:05:53.296Z,27.66
2022-09-18T12:08:39.083Z,28.45
2022-09-18T12:11:05.601Z,25.97
2022-09-18T12:13:45.307Z,24.80
2022-09-18T12:17:00.641Z,26.16
2022-09-18T12:19:49.435Z,25.95
2022-09-18T12:22:44.373Z,27.45
2022-09-18T12:25:15.914Z,29.78
2022-09-18T12:28:06.255Z,28.14
2022-09-18T12:30:51.614Z,29.68
2022-09-18T12:33:56.122Z,28.34
2022-09-18T12:36:51.893Z,26.58
2022-09-18T12:39:46.824Z,29.85
2022-09-18T12:42:31.744Z,30.01
2022-09-18T12:45:30.796Z,28.91
2022-09-18T12:48:19.241Z,26.21
2022-09-18T12:51:10.246Z,26.07
2022-09-18T12:54:06.703Z,30.02
2022-09-18T12:56:48.825Z,28.10
2022-09-18T12:59:32.265Z,28.83
2022-09-18T13:02:27.222Z,29.98
2022-09-18T13:05:00.512Z,24.79
2022-09-18T13:07:42.963Z,23.61
2022-09-18T13:10:28.635Z,29.80
2022-09-18T13:12:55.659Z,26.66
2022-09-18T13:15:35.577Z,25.15
2022-09-18T13:18:23.592Z,22.44
2022-09-18T13:20:53.895Z,24.26
2022-09-18T13:23:29.996Z,26.63
2022-09-18T13:25:57.939Z,30.02
2022-09-18T13:28:27.996Z,22.73
2022-09-18T13:31:16.895Z,26.36
2022-09-18T13:34:17.849Z,23.89
2022-09-18T13:36:46.646Z,24.15
2022-09-18T13:39:26.806Z,27.39
2022-09-18T13:41:56.304Z,26.96
2022-09-18T13:44:35.211Z,22.86
2022-09-18T13:47:15.781Z,27.99
2022-09-18T13:49:43.143Z,25.59
2022-09-18T13:52:43.094Z,28.48
2022-09-18T13:55:18.364Z,25.67
2022-09-18T13:57:46.262Z,23.88
2022-09-18T14:00:27.463Z,26.19
2022-09-18T14:03:13.239Z,25.94
2022-09-18T14:05:43.114Z,24.24
2022-09-18T14:08:19.008Z,23.15
2022-09-18T14:11:14.918Z,26.42
2022-09-18T14:13:54.622Z,29.72
2022-09-18T14:16:22.039Z,28.40
2022-09-18T14:18:48.846Z,28.29
2022-09-18T14:21:19.145Z,27.13
2022-09-18T14:23:49.921Z,23.99
2022-09-18T14:26:35.244Z,26.44
2022-09-18T14:29:18.359Z,28.50
2022-09-18T14:31:47.586Z,27.88
2022-09-18T14:34:21.050Z,28.80
2022-09-18T14:36:51.324Z,27.98
2022-09-18T14:39:34.710Z,26.84
2022-09-18T14:42:05.658Z,26.83
2022-09-18T14:44:34.597Z,26.09
2022-09-18T14:47:04.828Z,30.02
2022-09-18T14:49:43.831Z,28.17
2022-09-18T14:52:20.413Z,29.76
2022-09-18T14:54:49.804Z,26.90
2022-09-18T14:57:22.107Z,25.20
2022-09-18T14:59:51.886Z,25.66
2022-09-18T15:02:29.466Z,26.09
2022-09-18T15:04:59.275Z,26.15
2022-09-18T15:07:27.769Z,25.02
2022-09-18T15:09:56.857Z,28.39
2022-09-18T15:12:26.359Z,24.16
2022-09-18T15:14:53.259Z,27.97
2022-09-18T15:17:23.362Z,25.35
2022-09-18T15:20:11.505Z,30.18
2022-09-18T15:22:42.610Z,29.54
2022-09-18T15:25:23.225Z,26.78
2022-09-18T15:27:52.013Z,30.86
2022-09-18T15:30:21.626Z,24.53
2022-09-18T15:32:58.824Z,25.27
2022-09-18T15:35:29.714Z,30.56
2022-09-18T15:38:03.163Z,30.29
2022-09-18T15:40:34.230Z,28.15
2022-09-18T15:43:06.659Z,24.36
2022-09-18T15:45:36.228Z,24.41
2022-09-18T15:48:34.903Z,29.43
2022-09-18T15:51:13.568Z,33.73
2022-09-18T15:53:40.985Z,29.49
2022-09-18T15:56:17.967Z,30.94
2022-09-18T15:58:54.550Z,28.54
2022-09-18T16:01:25.006Z,29.58
2022-09-18T16:04:05.570Z,28.42
2022-09-18T16:06:42.101Z,31.09
2022-09-18T16:09:23.073Z,34.61
2022-09-18T16:11:49.788Z,28.34
2022-09-18T16:14:41.353Z,28.96
2022-09-18T16:17:31.942Z,27.04
2022-09-18T16:20:01.935Z,29.71
2022-09-18T16:22:30.457Z,33.39
2022-09-18T16:24:58.111Z,32.12
2022-09-18T16:27:26.332Z,29.54
2022-09-18T16:29:53.437Z,30.88
2022-09-18T16:32:21.781Z,30.62
2022-09-18T16:34:48.851Z,27.25
2022-09-18T16:37:17.107Z,27.71
2022-09-18T16:39:45.523Z,27.54
2022-09-18T16:42:18.589Z,27.89
2022-09-18T16:44:46.130Z,33.49
2022-09-18T16:47:14.959Z,30.90
2022-09-18T16:49:44.447Z,27.43
2022-09-18T16:52:11.749Z,28.63
2022-09-18T16:54:38.526Z,29.19
2022-09-18T16:57:18.336Z,29.14
2022-09-18T16:59:45.101Z,29.38
2022-09-18T17:02:15.733Z,29.82
2022-09-18T17:04:44.331Z,30.24
2022-09-18T17:07:11.189Z,30.56
2022-09-18T17:09:37.972Z,31.59
2022-09-18T17:12:05.078Z,31.98
2022-09-18T17:14:31.928Z,32.36
2022-09-18T17:16:58.835Z,32.50
2022-09-18T17:19:26.012Z,32.77
2022-09-18T17:21:53.671Z,33.32
2022-09-18T17:24:25.665Z,33.32
2022-09-18T17:26:55.492Z,35.00
2022-09-18T17:29:22.564Z,33.83
2022-09-18T17:31:49.607Z,33.94
2022-09-18T17:34:16.688Z,33.92
2022-09-18T17:36:43.778Z,34.68
2022-09-18T17:39:10.687Z,37.17
2022-09-18T17:41:38.162Z,35.67
2022-09-18T17:44:05.923Z,33.89
2022-09-18T17:46:34.857Z,34.48
2022-09-18T17:49:02.032Z,34.56
2022-09-18T17:51:29.385Z,34.89
2022-09-18T17:54:05.968Z,34.93
2022-09-18T17:56:34.033Z,35.39
2022-09-18T17:59:05.451Z,35.83
2022-09-18T18:01:36.312Z,35.09
2022-09-18T18:04:04.565Z,35.64
2022-09-18T18:06:32.160Z,36.03
2022-09-18T18:08:59.118Z,36.24
2022-09-18T18:11:26.201Z,36.23
2022-09-18T18:13:54.461Z,37.08
2022-09-18T18:16:24.828Z,37.20
2022-09-18T18:18:55.239Z,35.52
2022-09-18T18:21:22.357Z,37.27
2022-09-18T18:23:49.317Z,38.08
2022-09-18T18:26:15.945Z,38.38
2022-09-18T18:28:42.889Z,39.38
2022-09-18T18:31:14.291Z,39.36
2022-09-18T18:33:42.726Z,38.31
2022-09-18T18:36:17.014Z,38.18
2022-09-18T18:38:45.933Z,38.19
2022-09-18T18:41:13.751Z,37.77
2022-09-18T18:43:41.971Z,37.59
2022-09-18T18:46:12.840Z,38.12
2022-09-18T18:48:40.898Z,38.23
2022-09-18T18:51:14.509Z,38.63
2022-09-18T18:53:42.172Z,40.89
2022-09-18T18:56:15.226Z,39.94
2022-09-18T18:58:43.999Z,42.13
2022-09-18T19:01:15.659Z,39.75
2022-09-18T19:03:48.645Z,38.75
2022-09-18T19:06:15.405Z,38.97
2022-09-18T19:08:46.299Z,38.77
2022-09-18T19:11:18.824Z,38.77
2022-09-18T19:13:54.095Z,39.01
2022-09-18T19:16:21.039Z,39.15
2022-09-18T19:18:59.716Z,42.08
2022-09-18T19:21:28.828Z,39.67
2022-09-18T19:23:59.285Z,42.56
2022-09-18T19:26:28.969Z,39.95
2022-09-18T19:28:57.912Z,39.49
2022-09-18T19:31:26.381Z,41.92
2022-09-18T19:33:53.590Z,40.16
2022-09-18T19:36:23.546Z,42.74
2022-09-18T19:39:01.129Z,40.32
2022-09-18T19:41:46.663Z,41.06
2022-09-18T19:44:50.321Z,43.09
2022-09-18T19:47:23.685Z,41.85
2022-09-18T19:49:51.573Z,39.62
2022-09-18T19:52:21.507Z,39.87
2022-09-18T19:54:50.920Z,39.96
2022-09-18T19:57:18.778Z,40.87
2022-09-18T19:59:47.149Z,39.97
2022-09-18T20:02:17.446Z,39.24
2022-09-18T20:04:44.476Z,39.44
2022-09-18T20:07:11.306Z,39.97
2022-09-18T20:09:40.266Z,38.34
2022-09-18T20:12:08.115Z,40.66
2022-09-18T20:14:34.769Z,39.24
2022-09-18T20:17:01.394Z,38.70
2022-09-18T20:19:27.947Z,38.53
2022-09-18T20:21:54.730Z,39.32
2022-09-18T20:24:21.548Z,40.17
2022-09-18T20:26:48.120Z,38.93
2022-09-18T20:29:16.407Z,39.68
2022-09-18T20:31:43.728Z,41.82
2022-09-18T20:34:11.187Z,39.01
2022-09-18T20:36:38.247Z,39.83
2022-09-18T20:39:05.411Z,38.92
2022-09-18T20:41:32.370Z,41.37
2022-09-18T20:44:01.218Z,41.80
2022-09-18T20:46:27.985Z,39.00
2022-09-18T20:48:59.892Z,37.99
2022-09-18T20:51:29.599Z,36.91
2022-09-18T20:53:57.831Z,38.88
2022-09-18T20:56:36.770Z,35.83
2022-09-18T20:59:05.074Z,40.51
2022-09-18T21:01:35.221Z,40.80
2022-09-18T21:04:02.672Z,39.53
2022-09-18T21:06:34.643Z,39.64
2022-09-18T21:09:06.947Z,40.62
2022-09-18T21:11:40.167Z,37.33
2022-09-18T21:14:08.527Z,38.16
2022-09-18T21:16:40.465Z,37.62
2022-09-18T21:19:07.220Z,37.97
2022-09-18T21:21:34.435Z,40.04
2022-09-18T21:24:02.212Z,37.89
2022-09-18T21:26:35.892Z,39.86
2022-09-18T21:29:15.049Z,37.36
2022-09-18T21:31:42.984Z,38.37
2022-09-18T21:34:12.097Z,38.17
2022-09-18T21:36:41.597Z,39.02
2022-09-18T21:39:09.550Z,37.70
2022-09-18T21:41:37.972Z,40.43
2022-09-18T21:44:06.749Z,38.73
2022-09-18T21:46:36.171Z,38.37
2022-09-18T21:49:05.995Z,39.46
2022-09-18T21:51:37.082Z,40.55
2022-09-18T21:54:05.693Z,37.80
2022-09-18T21:56:33.223Z,38.34
2022-09-18T21:59:00.405Z,40.13
2022-09-18T22:01:31.139Z,38.30
2022-09-18T22:04:00.914Z,39.30
2022-09-18T22:06:35.848Z,38.49
2022-09-18T22:09:08.044Z,41.42
2022-09-18T22:11:37.003Z,40.08
2022-09-18T22:14:09.027Z,40.44
2022-09-18T22:16:36.735Z,39.69
2022-09-18T22:19:04.065Z,38.10
2022-09-18T22:21:32.999Z,40.25
2022-09-18T22:24:10.823Z,38.43
2022-09-18T22:26:43.285Z,41.06
2022-09-18T22:29:22.373Z,40.21
2022-09-18T22:31:50.031Z,37.96
2022-09-18T22:34:19.704Z,41.14
2022-09-18T22:36:47.921Z,39.35
2022-09-18T22:39:16.416Z,40.52
2022-09-18T22:41:43.727Z,37.65
2022-09-18T22:44:11.450Z,40.03
2022-09-18T22:46:39.857Z,40.27
2022-09-18T22:49:07.287Z,38.50
2022-09-18T22:51:34.517Z,39.81
2022-09-18T22:54:04.952Z,37.92
2022-09-18T22:56:32.968Z,37.77
2022-09-18T22:59:02.237Z,39.39
2022-09-18T23:01:40.866Z,38.16
2022-09-18T23:04:07.693Z,40.58
2022-09-18T23:06:34.862Z,40.10
2022-09-18T23:09:03.365Z,39.11
2022-09-18T23:11:32.412Z,40.08
2022-09-18T23:14:01.430Z,37.50
2022-09-18T23:16:30.519Z,37.62
2022-09-18T23:19:00.029Z,37.60
2022-09-18T23:21:28.542Z,37.99
2022-09-18T23:23:56.134Z,37.71
2022-09-18T23:26:25.490Z,38.09
2022-09-18T23:28:54.435Z,39.39
2022-09-18T23:31:29.804Z,41.28
2022-09-18T23:33:58.913Z,40.12
2022-09-18T23:36:26.895Z,38.20
2022-09-18T23:38:59.082Z,41.76
2022-09-18T23:41:26.159Z,40.99
2022-09-18T23:43:54.275Z,38.99
2022-09-18T23:46:22.302Z,41.07
2022-09-18T23:48:54.900Z,38.64
2022-09-18T23:51:32.779Z,39.06
2022-09-18T23:54:01.967Z,41.59
2022-09-18T23:56:31.208Z,38.85
2022-09-18T23:59:00.475Z,40.25
